Time,TemperatureF,DewpointF,PressureIn,WindDirection,WindDirectionDegrees,WindSpeedMPH,WindSpeedGustMPH,Humidity,HourlyPrecipIn,Conditions,Clouds,dailyrainin,SoftwareType,DateUTC
2013-01-24 00:18:00,36.2,24.0,26.26,SSW,211,8.0,23.0,62,0.00,,,0.00,weatherlink.com 1.10,2013-01-24 05:18:00,
2013-01-24 00:33:00,36.2,24.0,26.26,NW,312,12.0,26.0,62,0.00,,,0.00,weatherlink.com 1.10,2013-01-24 05:33:00,
2013-01-24 00:48:00,36.5,24.0,26.25,WNW,284,4.0,22.0,62,0.00,,,0.00,weatherlink.com 1.10,2013-01-24 05:48:00,
2013-01-24 01:03:00,36.3,24.0,26.25,West,266,8.0,26.0,62,0.00,,,0.00,weatherlink.com 1.10,2013-01-24 06:03:00,
2013-01-24 01:18:00,36.5,25.0,26.24,WSW,244,14.0,27.0,63,0.00,,,0.00,weatherlink.com 1.10,2013-01-24 06:18:00,
2013-01-24 01:33:00,36.5,25.0,26.24,WSW,238,5.0,36.0,64,0.00,,,0.00,weatherlink.com 1.10,2013-01-24 06:33:00,
2013-01-24 01:48:00,36.3,25.0,26.24,NW,319,11.0,25.0,65,0.00,,,0.00,weatherlink.com 1.10,2013-01-24 06:48:00,
2013-01-24 02:03:00,36.5,25.0,26.23,WNW,295,6.0,27.0,64,0.00,,,0.00,weatherlink.com 1.10,2013-01-24 07:03:00,
2013-01-24 02:18:00,36.5,26.0,26.23,WNW,283,18.0,24.0,65,0.00,,,0.00,weatherlink.com 1.10,2013-01-24 07:18:00,
2013-01-24 02:33:00,36.3,25.0,26.23,West,267,4.0,26.0,65,0.00,,,0.00,weatherlink.com 1.10,2013-01-24 07:33:00,
2013-01-24 02:48:00,36.0,26.0,26.21,West,271,8.0,21.0,67,0.00,,,0.00,weatherlink.com 1.10,2013-01-24 07:48:00,
2013-01-24 03:03:00,35.8,26.0,26.22,West,281,17.0,28.0,67,0.00,,,0.00,weatherlink.com 1.10,2013-01-24 08:03:00,
2013-01-24 03:18:00,35.6,25.0,26.23,West,259,13.0,34.0,66,0.00,,,0.00,weatherlink.com 1.10,2013-01-24 08:18:00,
2013-01-24 03:33:00,35.2,25.0,26.22,SW,223,10.0,29.0,67,0.00,,,0.00,weatherlink.com 1.10,2013-01-24 08:33:00,
2013-01-24 03:48:00,34.6,25.0,26.22,West,277,6.0,29.0,68,0.00,,,0.00,weatherlink.com 1.10,2013-01-24 08:48:00,
2013-01-24 04:03:00,34.1,24.0,26.22,SW,225,17.0,29.0,67,0.00,,,0.00,weatherlink.com 1.10,2013-01-24 09:03:00,
2013-01-24 04:18:00,33.5,24.0,26.22,NW,309,5.0,28.0,68,0.00,,,0.00,weatherlink.com 1.10,2013-01-24 09:18:00,
2013-01-24 04:33:00,33.2,24.0,26.21,WSW,248,5.0,33.0,69,0.00,,,0.00,weatherlink.com 1.10,2013-01-24 09:33:00,
2013-01-24 04:48:00,32.8,24.0,26.21,WSW,245,15.0,34.0,69,0.00,,,0.00,weatherlink.com 1.10,2013-01-24 09:48:00,
2013-01-24 05:03:00,32.4,23.0,26.21,NW,304,13.0,35.0,69,0.00,,,0.00,weatherlink.com 1.10,2013-01-24 10:03:00,
2013-01-24 05:18:00,32.2,22.0,26.22,West,264,12.0,28.0,67,0.00,,,0.00,weatherlink.com 1.10,2013-01-24 10:18:00,
2013-01-24 05:33:00,31.6,21.0,26.22,North,351,16.0,36.0,66,0.00,,,0.00,weatherlink.com 1.10,2013-01-24 10:33:00,
2013-01-24 05:49:00,30.9,21.0,26.23,WSW,242,8.0,25.0,67,0.00,,,0.00,weatherlink.com 1.10,2013-01-24 10:49:00,
2013-01-24 06:04:00,30.3,20.0,26.23,NW,315,16.0,32.0,65,0.00,,,0.00,weatherlink.com 1.10,2013-01-24 11:04:00,
2013-01-24 06:19:00,29.5,19.0,26.24,NW,322,16.0,36.0,64,0.00,,,0.00,weatherlink.com 1.10,2013-01-24 11:19:00,
2013-01-24 06:34:00,28.7,17.0,26.24,NNW,342,17.0,32.0,61,0.00,,,0.00,weatherlink.com 1.10,2013-01-24 11:34:00,
2013-01-24 06:49:00,28.2,15.0,26.24,WNW,294,10.0,36.0,58,0.00,,,0.00,weatherlink.com 1.10,2013-01-24 11:49:00,
2013-01-24 07:04:00,27.8,11.0,26.26,SW,234,11.0,31.0,50,0.00,,,0.00,weatherlink.com 1.10,2013-01-24 12:04:00,
2013-01-24 07:19:00,27.2,6.0,26.26,NW,321,19.0,33.0,41,0.00,,,0.00,weatherlink.com 1.10,2013-01-24 12:19:00,
2013-01-24 07:34:00,26.4,6.0,26.27,NNW,347,34.0,36.0,42,0.00,,,0.00,weatherlink.com 1.10,2013-01-24 12:34:00,
2013-01-24 07:49:00,25.6,7.0,26.28,NW,323,19.0,35.0,46,0.00,,,0.00,weatherlink.com 1.10,2013-01-24 12:49:00,
2013-01-24 07:54:00,25.3,9.0,26.28,NNW,334,18.0,36.0,51,0.00,,,0.00,weatherlink.com 1.10,2013-01-24 12:54:00,
2013-01-24 08:08:00,24.8,12.0,26.29,NNW,331,8.0,30.0,58,0.00,,,0.00,weatherlink.com 1.10,2013-01-24 13:08:00,
2013-01-24 08:23:00,24.2,13.0,26.29,NNW,333,12.0,40.0,62,0.00,,,0.00,weatherlink.com 1.10,2013-01-24 13:23:00,
2013-01-24 08:38:00,23.8,12.0,26.30,NNW,329,18.0,32.0,61,0.00,,,0.00,weatherlink.com 1.10,2013-01-24 13:38:00,
2013-01-24 08:53:00,23.3,11.0,26.31,NNW,340,18.0,31.0,59,0.00,,,0.00,weatherlink.com 1.10,2013-01-24 13:53:00,
2013-01-24 09:08:00,23.0,11.0,26.32,WSW,252,19.0,36.0,60,0.00,,,0.00,weatherlink.com 1.10,2013-01-24 14:08:00,
2013-01-24 09:23:00,23.2,11.0,26.33,NW,309,16.0,27.0,61,0.00,,,0.00,weatherlink.com 1.10,2013-01-24 14:23:00,
2013-01-24 09:38:00,22.9,12.0,26.34,NW,317,13.0,37.0,64,0.00,,,0.00,weatherlink.com 1.10,2013-01-24 14:38:00,
2013-01-24 09:53:00,22.9,12.0,26.36,WNW,286,14.0,28.0,64,0.00,,,0.00,weatherlink.com 1.10,2013-01-24 14:53:00,
2013-01-24 10:08:00,22.9,13.0,26.37,NNW,331,9.0,30.0,65,0.00,,,0.00,weatherlink.com 1.10,2013-01-24 15:08:00,
2013-01-24 10:23:00,23.0,12.0,26.39,NNW,342,20.0,27.0,62,0.00,,,0.00,weatherlink.com 1.10,2013-01-24 15:23:00,
2013-01-24 10:38:00,22.5,11.0,26.40,North,350,14.0,32.0,61,0.00,,,0.00,weatherlink.com 1.10,2013-01-24 15:38:00,
2013-01-24 10:53:00,22.9,11.0,26.41,NW,325,9.0,28.0,60,0.00,,,0.00,weatherlink.com 1.10,2013-01-24 15:53:00,
2013-01-24 11:08:00,22.5,12.0,26.42,NNW,345,15.0,32.0,63,0.00,,,0.00,weatherlink.com 1.10,2013-01-24 16:08:00,
2013-01-24 11:23:00,22.2,8.0,26.42,NNW,342,18.0,34.0,55,0.00,,,0.00,weatherlink.com 1.10,2013-01-24 16:23:00,
2013-01-24 11:38:00,22.5,8.0,26.43,NNW,339,18.0,37.0,54,0.00,,,0.00,weatherlink.com 1.10,2013-01-24 16:38:00,
2013-01-24 11:53:00,22.7,6.0,26.43,NNW,343,21.0,38.0,48,0.00,,,0.00,weatherlink.com 1.10,2013-01-24 16:53:00,
2013-01-24 12:08:00,23.0,3.0,26.44,North,360,19.0,34.0,43,0.00,,,0.00,weatherlink.com 1.10,2013-01-24 17:08:00,
2013-01-24 12:23:00,22.9,3.0,26.44,NNW,343,24.0,36.0,43,0.00,,,0.00,weatherlink.com 1.10,2013-01-24 17:23:00,
2013-01-24 12:38:00,22.5,4.0,26.44,North,350,27.0,32.0,44,0.00,,,0.00,weatherlink.com 1.10,2013-01-24 17:38:00,
2013-01-24 12:53:00,23.0,1.0,26.45,NW,325,16.0,25.0,38,0.00,,,0.00,weatherlink.com 1.10,2013-01-24 17:53:00,
2013-01-24 13:08:00,23.0,0.0,26.45,North,355,17.0,27.0,37,0.00,,,0.00,weatherlink.com 1.10,2013-01-24 18:08:00,
2013-01-24 13:23:00,22.5,1.0,26.46,NNW,332,16.0,25.0,40,0.00,,,0.00,weatherlink.com 1.10,2013-01-24 18:23:00,
2013-01-24 13:38:00,22.7,-1.0,26.47,North,360,13.0,25.0,36,0.00,,,0.00,weatherlink.com 1.10,2013-01-24 18:38:00,
2013-01-24 13:54:00,22.7,1.0,26.47,NNE,26,15.0,18.0,38,0.00,,,0.00,weatherlink.com 1.10,2013-01-24 18:54:00,
2013-01-24 14:09:00,22.5,0.0,26.47,NNW,328,3.0,19.0,38,0.00,,,0.00,weatherlink.com 1.10,2013-01-24 19:09:00,
2013-01-24 14:24:00,22.9,-1.0,26.49,North,5,7.0,21.0,36,0.00,,,0.00,weatherlink.com 1.10,2013-01-24 19:24:00,
2013-01-24 14:39:00,22.4,-3.0,26.49,SSW,213,3.0,17.0,33,0.00,,,0.00,weatherlink.com 1.10,2013-01-24 19:39:00,
2013-01-24 14:54:00,22.2,-2.0,26.50,NW,323,7.0,16.0,35,0.00,,,0.00,weatherlink.com 1.10,2013-01-24 19:54:00,
2013-01-24 15:09:00,21.9,-3.0,26.50,NW,315,10.0,15.0,33,0.00,,,0.00,weatherlink.com 1.10,2013-01-24 20:09:00,
2013-01-24 15:24:00,22.5,-2.0,26.51,NNW,328,6.0,15.0,34,0.00,,,0.00,weatherlink.com 1.10,2013-01-24 20:24:00,
2013-01-24 15:39:00,22.1,0.0,26.51,NW,321,8.0,14.0,38,0.00,,,0.00,weatherlink.com 1.10,2013-01-24 20:39:00,
2013-01-24 15:54:00,22.1,-2.0,26.52,NNW,336,13.0,15.0,35,0.00,,,0.00,weatherlink.com 1.10,2013-01-24 20:54:00,
2013-01-24 16:09:00,22.2,-1.0,26.52,NNW,333,3.0,14.0,36,0.00,,,0.00,weatherlink.com 1.10,2013-01-24 21:09:00,
2013-01-24 16:24:00,22.2,1.0,26.53,NNW,345,8.0,14.0,39,0.00,,,0.00,weatherlink.com 1.10,2013-01-24 21:24:00,
2013-01-24 16:39:00,22.4,-2.0,26.53,NW,310,4.0,9.0,35,0.00,,,0.00,weatherlink.com 1.10,2013-01-24 21:39:00,
2013-01-24 16:54:00,21.9,-1.0,26.53,NW,304,1.0,12.0,37,0.00,,,0.00,weatherlink.com 1.10,2013-01-24 21:54:00,
2013-01-24 17:09:00,21.6,-1.0,26.54,North,360,7.0,11.0,38,0.00,,,0.00,weatherlink.com 1.10,2013-01-24 22:09:00,
2013-01-24 17:25:00,21.3,1.0,26.54,NNW,332,8.0,12.0,41,0.00,,,0.00,weatherlink.com 1.10,2013-01-24 22:25:00,
2013-01-24 17:40:00,21.1,1.0,26.55,NNW,336,7.0,12.0,42,0.00,,,0.00,weatherlink.com 1.10,2013-01-24 22:40:00,
2013-01-24 17:55:00,20.6,2.0,26.55,NNW,336,8.0,10.0,44,0.00,,,0.00,weatherlink.com 1.10,2013-01-24 22:55:00,
2013-01-24 18:10:00,20.5,3.0,26.55,NNW,340,6.0,12.0,46,0.00,,,0.00,weatherlink.com 1.10,2013-01-24 23:10:00,
2013-01-24 18:25:00,20.2,2.0,26.55,North,355,4.0,10.0,45,0.00,,,0.00,weatherlink.com 1.10,2013-01-24 23:25:00,
2013-01-24 18:40:00,19.9,3.0,26.56,NNW,348,6.0,9.0,48,0.00,,,0.00,weatherlink.com 1.10,2013-01-24 23:40:00,
2013-01-24 18:55:00,19.5,1.0,26.56,North,355,11.0,14.0,45,0.00,,,0.00,weatherlink.com 1.10,2013-01-24 23:55:00,
2013-01-24 19:10:00,19.2,4.0,26.56,NNW,348,9.0,16.0,51,0.00,,,0.00,weatherlink.com 1.10,2013-01-25 00:10:00,
2013-01-24 19:25:00,19.1,3.0,26.56,NNW,334,7.0,10.0,49,0.00,,,0.00,weatherlink.com 1.10,2013-01-25 00:25:00,
2013-01-24 19:40:00,18.8,2.0,26.55,NNW,330,8.0,12.0,47,0.00,,,0.00,weatherlink.com 1.10,2013-01-25 00:40:00,
2013-01-24 19:55:00,18.4,1.0,26.56,NNW,327,7.0,11.0,47,0.00,,,0.00,weatherlink.com 1.10,2013-01-25 00:55:00,
2013-01-24 20:10:00,18.6,2.0,26.56,North,351,4.0,8.0,48,0.00,,,0.00,weatherlink.com 1.10,2013-01-25 01:10:00,
2013-01-24 20:25:00,18.4,1.0,26.55,North,360,5.0,9.0,47,0.00,,,0.00,weatherlink.com 1.10,2013-01-25 01:25:00,
2013-01-24 20:41:00,18.1,0.0,26.55,North,360,7.0,8.0,46,0.00,,,0.00,weatherlink.com 1.10,2013-01-25 01:41:00,
2013-01-24 20:56:00,18.3,2.0,26.55,North,360,0.0,4.0,48,0.00,,,0.00,weatherlink.com 1.10,2013-01-25 01:56:00,
2013-01-24 21:11:00,18.3,3.0,26.55,North,360,0.0,2.0,52,0.00,,,0.00,weatherlink.com 1.10,2013-01-25 02:11:00,
2013-01-24 21:26:00,17.3,3.0,26.55,North,360,0.0,2.0,53,0.00,,,0.00,weatherlink.com 1.10,2013-01-25 02:26:00,
2013-01-24 21:41:00,17.0,5.0,26.55,North,360,0.0,2.0,59,0.00,,,0.00,weatherlink.com 1.10,2013-01-25 02:41:00,
2013-01-24 21:56:00,16.9,6.0,26.56,North,360,0.0,2.0,63,0.00,,,0.00,weatherlink.com 1.10,2013-01-25 02:56:00,
2013-01-24 22:11:00,16.9,5.0,26.55,North,360,0.0,2.0,61,0.00,,,0.00,weatherlink.com 1.10,2013-01-25 03:11:00,
2013-01-24 22:26:00,17.3,5.0,26.56,North,360,0.0,2.0,60,0.00,,,0.00,weatherlink.com 1.10,2013-01-25 03:26:00,
2013-01-24 22:41:00,16.4,6.0,26.56,North,360,0.0,2.0,63,0.00,,,0.00,weatherlink.com 1.10,2013-01-25 03:41:00,
2013-01-24 22:56:00,16.2,6.0,26.57,North,360,1.0,2.0,65,0.00,,,0.00,weatherlink.com 1.10,2013-01-25 03:56:00,
2013-01-24 23:11:00,15.7,7.0,26.57,North,360,0.0,2.0,67,0.00,,,0.00,weatherlink.com 1.10,2013-01-25 04:11:00,
2013-01-24 23:26:00,15.4,6.0,26.58,North,360,0.0,2.0,67,0.00,,,0.00,weatherlink.com 1.10,2013-01-25 04:26:00,
2013-01-24 23:41:00,15.6,6.0,26.58,North,360,1.0,3.0,67,0.00,,,0.00,weatherlink.com 1.10,2013-01-25 04:41:00,
2013-01-24 23:56:00,15.7,5.0,26.58,North,360,0.0,3.0,62,0.00,,,0.00,weatherlink.com 1.10,2013-01-25 04:56:00,